createdAt,value
2024-04-12T00:20:49.389Z,11.93
2024-04-12T00:49:51.176Z,11.28
2024-04-12T01:18:57.900Z,11.77
2024-04-12T01:47:53.450Z,11.51
2024-04-12T02:16:57.654Z,11.81
2024-04-12T02:46:00.801Z,11.41
2024-04-12T03:15:02.151Z,11.21
2024-04-12T03:44:01.964Z,10.91
2024-04-12T04:13:17.269Z,10.83
2024-04-12T04:41:53.685Z,10.54
2024-04-12T05:11:03.066Z,10.33
2024-04-12T05:40:20.253Z,10.8
2024-04-12T06:09:30.559Z,11.16
2024-04-12T06:38:31.736Z,12.13
2024-04-12T07:07:51.005Z,13.49
2024-04-12T07:37:02.084Z,14.15
2024-04-12T08:06:11.572Z,15.56
2024-04-12T08:35:22.513Z,16.69
2024-04-12T09:04:26.421Z,17.82
2024-04-12T09:33:33.102Z,18.98
2024-04-12T10:02:40.586Z,20.35
2024-04-12T10:31:48.196Z,20.48
2024-04-12T11:01:07.917Z,21.12
2024-04-12T11:30:25.106Z,22.03
2024-04-12T11:59:39.913Z,23.03
2024-04-12T12:28:48.864Z,22.82
2024-04-12T12:57:59.151Z,23.15
2024-04-12T13:27:10.195Z,24
2024-04-12T13:56:18.367Z,24.33
2024-04-12T14:25:25.814Z,25.18
2024-04-12T14:54:33.675Z,25.16
2024-04-12T15:23:46.469Z,25.35
2024-04-12T15:52:56.311Z,25.52
2024-04-12T16:21:56.259Z,25.06
2024-04-12T16:51:01.136Z,25.33
2024-04-12T17:19:54.624Z,24.87
2024-04-12T17:49:02.147Z,24.7
2024-04-12T18:17:47.757Z,23.24
2024-04-12T18:46:36.614Z,21.48
2024-04-12T19:15:31.189Z,20.71
2024-04-12T19:44:17.891Z,18.84
2024-04-12T20:13:30.161Z,19.12
2024-04-12T20:42:34.701Z,18.96
2024-04-12T21:11:28.300Z,17.94
2024-04-12T21:40:28.426Z,17.41
2024-04-12T22:09:30.137Z,17.2
2024-04-12T22:38:19.055Z,17
2024-04-12T23:07:22.800Z,16.28
2024-04-12T23:36:20.432Z,15.76
